Time;durP1;ratioP1;P1;durP2;ratioP2;P2;SDS_P1;SDS_P2;PMS_P1;PMS_P2;Temp;Humidity;BMP_temperature;BMP_pressure;BME280_temperature;BME280_humidity;BME280_pressure;Samples;Min_cycle;Max_cycle;Signal;HPM_P1;HPM_P2
2021/04/01 00:00:49;;;;;;;14.98;9.38;;;7.30;99.90;;;;;;5009567;28;20157;-73
2021/04/01 00:03:15;;;;;;;20.33;10.23;;;7.20;99.90;;;;;;5009422;28;20068;-73
2021/04/01 00:05:41;;;;;;;15.27;9.80;;;7.10;99.90;;;;;;5009507;28;20030;-73
2021/04/01 00:08:07;;;;;;;15.20;10.40;;;7.10;99.90;;;;;;5009482;28;20137;-73
2021/04/01 00:10:38;;;;;;;16.58;9.07;;;7.10;99.90;;;;;;5009345;28;20526;-73
2021/04/01 00:13:04;;;;;;;16.63;9.68;;;7.00;99.90;;;;;;5009378;28;20129;-73
2021/04/01 00:15:30;;;;;;;17.48;10.60;;;7.00;99.90;;;;;;5009553;28;20439;-73
2021/04/01 00:17:56;;;;;;;17.75;10.43;;;7.00;99.90;;;;;;5009240;28;20022;-73
2021/04/01 00:20:22;;;;;;;18.15;9.73;;;7.00;99.90;;;;;;5009035;28;20045;-74
2021/04/01 00:22:47;;;;;;;14.10;9.60;;;7.00;99.90;;;;;;5009087;28;20029;-74
2021/04/01 00:25:16;;;;;;;17.65;10.60;;;6.90;99.90;;;;;;5009074;28;20022;-73
2021/04/01 00:27:42;;;;;;;17.02;9.75;;;6.90;99.90;;;;;;5009115;28;20046;-73
2021/04/01 00:30:09;;;;;;;12.68;9.40;;;6.80;99.90;;;;;;5008912;28;20483;-73
2021/04/01 00:32:35;;;;;;;19.77;9.68;;;6.80;99.90;;;;;;5008966;28;20044;-73
2021/04/01 00:35:01;;;;;;;20.35;10.32;;;6.80;99.90;;;;;;5008147;28;20032;-73
2021/04/01 00:37:26;;;;;;;16.08;9.25;;;6.70;99.90;;;;;;5008943;28;20097;-73
2021/04/01 00:39:52;;;;;;;13.77;9.13;;;6.70;99.90;;;;;;5008770;28;20124;-73
2021/04/01 00:42:18;;;;;;;16.70;9.95;;;6.60;99.90;;;;;;5008687;28;20026;-73
2021/04/01 00:44:44;;;;;;;14.10;9.88;;;6.60;99.90;;;;;;5008783;28;20037;-73
2021/04/01 00:47:10;;;;;;;12.85;8.88;;;6.50;99.90;;;;;;5008959;28;20412;-73
2021/04/01 00:49:37;;;;;;;18.58;10.35;;;6.40;99.90;;;;;;5009946;28;20087;-74
2021/04/01 00:52:04;;;;;;;12.82;9.60;;;6.40;99.90;;;;;;5008629;28;20479;-74
2021/04/01 00:54:30;;;;;;;14.13;9.23;;;6.30;99.90;;;;;;5008596;28;20026;-74
2021/04/01 00:56:56;;;;;;;16.10;9.35;;;6.30;99.90;;;;;;5008549;28;20033;-73
2021/04/01 00:59:22;;;;;;;17.10;9.77;;;6.20;99.90;;;;;;5008463;28;20022;-73
2021/04/01 01:01:58;;;;;;;16.30;9.80;;;6.20;99.90;;;;;;5008557;28;20044;-73
2021/04/01 01:04:24;;;;;;;15.95;11.20;;;6.20;99.90;;;;;;5008563;28;20034;-74
2021/04/01 01:06:50;;;;;;;17.35;10.75;;;6.20;99.90;;;;;;5008454;28;20119;-73
2021/04/01 01:09:16;;;;;;;17.23;11.45;;;6.20;99.90;;;;;;5008437;28;20073;-73
2021/04/01 01:11:41;;;;;;;18.73;11.45;;;6.10;99.90;;;;;;5008241;28;20116;-73
2021/04/01 01:14:08;;;;;;;19.27;11.90;;;6.10;99.90;;;;;;5008435;28;20032;-73
2021/04/01 01:16:35;;;;;;;15.27;11.07;;;6.00;99.90;;;;;;5008345;28;20103;-73
2021/04/01 01:19:03;;;;;;;20.98;11.88;;;6.10;99.90;;;;;;5008269;28;20054;-73
2021/04/01 01:21:29;;;;;;;22.60;12.20;;;6.00;99.90;;;;;;5008219;28;20034;-74
2021/04/01 01:23:56;;;;;;;18.70;11.25;;;5.90;99.90;;;;;;5008223;28;20030;-73
2021/04/01 01:26:22;;;;;;;20.17;11.45;;;5.80;99.90;;;;;;5008187;28;20061;-73
2021/04/01 01:28:48;;;;;;;17.77;11.80;;;5.80;99.90;;;;;;5008232;28;20050;-73
2021/04/01 01:31:16;;;;;;;20.17;11.77;;;5.80;99.90;;;;;;5008171;28;20172;-74
2021/04/01 01:33:42;;;;;;;19.17;11.70;;;5.80;99.90;;;;;;5008157;28;20033;-73
2021/04/01 01:36:12;;;;;;;18.30;11.77;;;5.70;99.90;;;;;;5008140;28;20033;-73
2021/04/01 01:38:38;;;;;;;19.15;11.10;;;5.70;99.90;;;;;;5008105;28;20026;-73
2021/04/01 01:41:05;;;;;;;16.85;11.30;;;5.70;99.90;;;;;;5008171;28;20080;-74
2021/04/01 01:43:32;;;;;;;18.40;11.32;;;5.60;99.90;;;;;;5008177;28;20026;-73
2021/04/01 01:45:57;;;;;;;19.40;10.85;;;5.60;99.90;;;;;;5010843;28;20071;-73
2021/04/01 01:48:23;;;;;;;18.73;11.38;;;5.60;99.90;;;;;;5012214;28;20026;-73
2021/04/01 01:50:49;;;;;;;17.55;10.80;;;5.60;99.90;;;;;;5012092;28;20435;-73
2021/04/01 01:53:15;;;;;;;17.92;11.10;;;5.60;99.90;;;;;;5012303;28;20030;-73
2021/04/01 01:55:41;;;;;;;16.42;10.93;;;5.60;99.90;;;;;;5012151;28;20026;-74
2021/04/01 01:58:07;;;;;;;16.73;10.15;;;5.50;99.90;;;;;;5012127;28;20022;-73
2021/04/01 02:00:55;;;;;;;19.98;11.57;;;5.50;99.90;;;;;;5011921;28;20032;-73
2021/04/01 02:03:23;;;;;;;18.92;10.75;;;5.50;99.90;;;;;;5011850;28;20487;-74
2021/04/01 02:05:49;;;;;;;18.40;11.20;;;5.50;99.90;;;;;;5011919;28;20030;-73
2021/04/01 02:08:14;;;;;;;18.15;11.88;;;5.50;99.90;;;;;;5011825;28;20029;-73
2021/04/01 02:10:46;;;;;;;18.63;11.60;;;5.50;99.90;;;;;;5011719;28;20406;-73
2021/04/01 02:13:14;;;;;;;22.65;11.75;;;5.50;99.90;;;;;;5011761;28;20026;-73
2021/04/01 02:15:41;;;;;;;19.90;11.13;;;5.50;99.90;;;;;;5011753;28;20077;-73
2021/04/01 02:18:08;;;;;;;17.65;10.65;;;5.40;99.90;;;;;;5011612;28;20117;-73
2021/04/01 02:20:43;;;;;;;17.52;10.77;;;5.40;99.90;;;;;;5011404;28;20045;-73
2021/04/01 02:23:13;;;;;;;19.40;11.10;;;5.40;99.90;;;;;;5011576;28;20030;-73
2021/04/01 02:25:40;;;;;;;18.95;11.35;;;5.40;99.90;;;;;;5011459;28;20395;-74
2021/04/01 02:28:07;;;;;;;15.35;10.07;;;5.40;99.90;;;;;;5011445;28;20144;-73
2021/04/01 02:30:34;;;;;;;22.60;11.25;;;5.30;99.90;;;;;;5011308;28;20029;-73
2021/04/01 02:33:00;;;;;;;18.17;10.63;;;5.30;99.90;;;;;;5011361;28;20041;-73
2021/04/01 02:35:26;;;;;;;19.30;10.55;;;5.30;99.90;;;;;;5011282;28;20567;-73
2021/04/01 02:37:51;;;;;;;15.90;10.25;;;5.30;99.90;;;;;;5011258;28;20065;-73
2021/04/01 02:40:17;;;;;;;18.23;11.02;;;5.30;99.90;;;;;;5011843;28;20037;-73
2021/04/01 02:42:43;;;;;;;18.10;11.00;;;5.30;99.90;;;;;;5011209;28;20033;-73
2021/04/01 02:45:11;;;;;;;19.65;10.90;;;5.20;99.90;;;;;;5011209;28;20025;-73
2021/04/01 02:47:36;;;;;;;19.20;10.63;;;5.20;99.90;;;;;;5011060;28;20088;-74
2021/04/01 02:50:05;;;;;;;17.98;10.55;;;5.20;99.90;;;;;;5010946;28;20550;-73
2021/04/01 02:52:30;;;;;;;20.85;11.52;;;5.20;99.90;;;;;;5010877;28;20073;-73
2021/04/01 02:54:56;;;;;;;21.50;11.27;;;5.20;99.90;;;;;;5010956;28;20117;-74
2021/04/01 02:57:22;;;;;;;15.32;10.48;;;5.10;99.90;;;;;;5010100;28;20061;-74
2021/04/01 02:59:48;;;;;;;18.88;11.25;;;5.10;99.90;;;;;;5010826;28;20033;-74
2021/04/01 03:02:14;;;;;;;20.13;10.95;;;5.00;99.90;;;;;;5010735;28;20025;-73
2021/04/01 03:04:41;;;;;;;17.80;10.98;;;5.00;99.90;;;;;;5010762;28;20051;-74
2021/04/01 03:07:07;;;;;;;18.30;11.35;;;5.00;99.90;;;;;;5010823;28;20053;-73
2021/04/01 03:09:33;;;;;;;17.35;10.50;;;4.90;99.90;;;;;;5010581;28;20018;-74
2021/04/01 03:11:59;;;;;;;19.45;11.65;;;4.90;99.90;;;;;;5010663;28;20076;-73
2021/04/01 03:14:26;;;;;;;20.83;10.90;;;4.80;99.90;;;;;;5010613;28;20034;-73
2021/04/01 03:16:52;;;;;;;20.13;10.57;;;4.80;99.90;;;;;;5010587;28;20026;-73
2021/04/01 03:19:18;;;;;;;15.13;10.35;;;4.80;99.90;;;;;;5010453;28;20049;-74
2021/04/01 03:21:45;;;;;;;17.20;10.48;;;4.70;99.90;;;;;;5010327;28;20488;-73
2021/04/01 03:24:11;;;;;;;17.83;11.15;;;4.70;99.90;;;;;;5010341;28;20026;-74
2021/04/01 03:26:37;;;;;;;14.55;9.98;;;4.70;99.90;;;;;;5010395;28;20037;-73
2021/04/01 03:29:03;;;;;;;16.42;11.00;;;4.60;99.90;;;;;;5010373;28;20025;-73
2021/04/01 03:31:29;;;;;;;16.92;10.57;;;4.60;99.90;;;;;;5010198;28;20018;-73
2021/04/01 03:33:54;;;;;;;17.55;11.10;;;4.60;99.90;;;;;;5010271;28;20056;-73
2021/04/01 03:36:20;;;;;;;18.08;10.85;;;4.60;99.90;;;;;;5010181;28;20057;-73
2021/04/01 03:38:47;;;;;;;17.52;10.80;;;4.60;99.90;;;;;;5010156;28;20510;-73
2021/04/01 03:41:12;;;;;;;18.67;10.25;;;4.50;99.90;;;;;;5010025;28;20084;-73
2021/04/01 03:43:38;;;;;;;15.15;9.85;;;4.50;99.90;;;;;;5010077;28;20432;-73
2021/04/01 03:46:04;;;;;;;16.55;10.48;;;4.50;99.90;;;;;;5010128;28;20032;-73
2021/04/01 03:48:30;;;;;;;17.27;10.85;;;4.50;99.90;;;;;;5010015;28;20108;-74
2021/04/01 03:50:56;;;;;;;18.20;10.80;;;4.50;99.90;;;;;;5009876;28;20105;-73
2021/04/01 03:53:21;;;;;;;17.10;10.85;;;4.50;99.90;;;;;;5009912;28;20029;-73
2021/04/01 03:55:47;;;;;;;16.60;10.63;;;4.40;99.90;;;;;;5009871;28;20026;-73
2021/04/01 04:01:02;;;;;;;21.90;13.27;;;4.40;99.90;;;;;;5011564;28;20041;-73
2021/04/01 04:11:22;;;;;;;18.85;11.25;;;4.40;99.90;;;;;;5011039;28;20022;-73
2021/04/01 04:13:53;;;;;;;16.83;11.02;;;4.30;99.90;;;;;;5009580;28;20022;-73
2021/04/01 04:16:19;;;;;;;17.67;11.25;;;4.30;99.90;;;;;;5009506;28;20118;-73
2021/04/01 04:18:45;;;;;;;17.85;10.95;;;4.30;99.90;;;;;;5009645;28;20117;-73
2021/04/01 04:21:11;;;;;;;19.33;12.65;;;4.30;99.90;;;;;;5009207;28;20030;-74
2021/04/01 04:23:40;;;;;;;21.38;11.88;;;4.30;99.90;;;;;;5009253;28;20032;-74
2021/04/01 04:26:06;;;;;;;18.77;11.60;;;4.30;99.90;;;;;;5009249;28;20022;-74
2021/04/01 04:28:32;;;;;;;16.52;10.77;;;4.20;99.90;;;;;;5009216;28;20503;-74
2021/04/01 04:30:59;;;;;;;20.38;12.65;;;4.30;99.90;;;;;;5009132;28;20033;-73
2021/04/01 04:33:25;;;;;;;18.98;12.10;;;4.20;99.90;;;;;;5009136;28;20030;-73
2021/04/01 04:35:50;;;;;;;20.77;12.13;;;4.30;99.90;;;;;;5009082;28;20032;-73
2021/04/01 04:38:16;;;;;;;22.42;12.25;;;4.20;99.90;;;;;;5009010;28;20480;-73
2021/04/01 04:40:42;;;;;;;19.80;11.38;;;4.20;99.90;;;;;;5008973;28;20403;-74
2021/04/01 04:43:08;;;;;;;20.92;12.65;;;4.20;99.90;;;;;;5008902;28;20030;-74
2021/04/01 04:45:33;;;;;;;19.83;12.02;;;4.10;99.90;;;;;;5008918;28;20064;-73
2021/04/01 04:47:59;;;;;;;19.08;12.60;;;4.10;99.90;;;;;;5008848;28;20022;-73
2021/04/01 04:50:24;;;;;;;21.42;12.48;;;4.10;99.90;;;;;;5008861;28;20018;-73
2021/04/01 04:52:50;;;;;;;20.05;12.55;;;4.10;99.90;;;;;;5008999;28;20563;-73
2021/04/01 04:55:17;;;;;;;19.92;11.63;;;4.10;99.90;;;;;;5008822;28;20030;-74
2021/04/01 05:05:22;;;;;;;20.70;11.75;;;4.10;99.90;;;;;;5010214;28;20029;-73
2021/04/01 05:07:48;;;;;;;19.95;12.43;;;4.20;99.90;;;;;;5008602;28;20541;-73
2021/04/01 05:10:14;;;;;;;16.67;10.65;;;4.20;99.90;;;;;;5008494;28;20030;-74
2021/04/01 05:12:39;;;;;;;24.10;12.38;;;4.30;99.90;;;;;;5008515;28;20030;-73
2021/04/01 05:15:05;;;;;;;18.75;10.95;;;4.30;99.90;;;;;;5009847;28;20503;-73
2021/04/01 05:17:31;;;;;;;25.73;12.77;;;4.40;99.90;;;;;;5008513;28;20112;-73
2021/04/01 05:20:01;;;;;;;18.45;10.73;;;4.40;99.90;;;;;;5032776;23;20196;-73
2021/04/01 05:22:50;;;;;;;15.65;10.68;;;4.50;99.90;;;;;;5008352;28;20104;-73
2021/04/01 05:25:16;;;;;;;20.75;11.23;;;4.60;99.90;;;;;;5009650;28;20033;-73
2021/04/01 05:27:51;;;;;;;17.38;11.13;;;4.70;99.90;;;;;;5008550;28;20169;-73
2021/04/01 05:30:17;;;;;;;19.23;11.57;;;4.80;99.90;;;;;;5008525;28;20453;-73
2021/04/01 05:32:44;;;;;;;20.48;12.10;;;4.90;99.90;;;;;;5008533;28;20033;-73
2021/04/01 05:35:14;;;;;;;17.20;11.40;;;5.00;99.90;;;;;;5008621;28;20022;-71
2021/04/01 05:37:40;;;;;;;15.23;11.43;;;5.20;99.90;;;;;;5010325;28;20030;-73
2021/04/01 05:40:07;;;;;;;21.42;12.32;;;5.30;99.90;;;;;;5008574;28;20067;-73
2021/04/01 05:42:37;;;;;;;18.10;12.05;;;5.50;99.90;;;;;;5008408;28;20030;-73
2021/04/01 05:45:27;;;;;;;20.67;11.93;;;5.70;99.90;;;;;;5008957;28;20068;-73
2021/04/01 05:47:59;;;;;;;20.15;11.57;;;5.90;99.90;;;;;;5008985;28;20022;-74
2021/04/01 05:50:41;;;;;;;20.90;11.23;;;6.10;99.90;;;;;;5009048;28;20483;-73
2021/04/01 05:59:36;;;;;;;19.90;10.32;;;6.70;99.90;;;;;;5012357;28;20033;-73
2021/04/01 06:01:48;;;;;;;21.20;9.43;;;6.90;99.90;;;;;;4998991;28;20092;-73
2021/04/01 06:04:34;;;;;;;17.27;9.80;;;7.20;99.90;;;;;;5008160;28;20438;-73
2021/04/01 06:07:14;;;;;;;14.55;8.77;;;7.40;99.90;;;;;;5008306;28;20034;-73
2021/04/01 06:09:48;;;;;;;16.08;9.18;;;7.70;99.90;;;;;;5008332;28;20029;-73
2021/04/01 06:12:14;;;;;;;18.90;8.10;;;8.00;99.90;;;;;;5008112;28;20116;-73
2021/04/01 06:14:51;;;;;;;15.75;7.65;;;8.20;99.90;;;;;;5008155;28;20120;-73
2021/04/01 06:17:18;;;;;;;16.00;7.25;;;8.40;99.90;;;;;;5008187;28;20495;-73
2021/04/01 06:19:47;;;;;;;15.70;7.55;;;8.60;99.90;;;;;;5008310;28;20438;-74
2021/04/01 06:22:14;;;;;;;13.85;7.40;;;8.90;99.90;;;;;;5007818;28;20026;-73
2021/04/01 06:24:43;;;;;;;15.05;7.35;;;9.10;99.90;;;;;;5008007;28;20026;-73
2021/04/01 06:27:24;;;;;;;18.08;8.38;;;9.40;99.90;;;;;;5007957;28;20116;-73
2021/04/01 06:32:48;;;;;;;10.50;5.88;;;9.80;99.90;;;;;;5011436;28;20038;-73
2021/04/01 06:35:43;;;;;;;12.68;7.57;;;10.00;99.90;;;;;;5011544;28;20047;-73
2021/04/01 06:40:55;;;;;;;12.25;7.13;;;10.40;99.90;;;;;;5012571;28;20030;-73
2021/04/01 06:43:33;;;;;;;10.90;5.68;;;10.50;99.90;;;;;;5011671;28;20026;-73
2021/04/01 06:46:07;;;;;;;10.52;6.45;;;10.50;99.90;;;;;;5011229;28;20022;-73
2021/04/01 06:49:20;;;;;;;10.50;5.78;;;10.70;99.90;;;;;;5011260;28;20026;-73
2021/04/01 06:54:28;;;;;;;10.45;6.50;;;11.00;99.90;;;;;;5012486;28;20029;-73
2021/04/01 06:57:17;;;;;;;9.82;5.57;;;11.10;99.90;;;;;;5011079;28;20034;-74
2021/04/01 07:00:11;;;;;;;10.73;5.75;;;11.30;99.90;;;;;;5011114;28;20026;-73
2021/04/01 07:02:42;;;;;;;9.60;5.25;;;11.60;99.90;;;;;;5010772;28;20026;-73
2021/04/01 07:07:57;;;;;;;9.02;5.07;;;12.00;99.90;;;;;;5012492;28;20081;-73
2021/04/01 07:13:10;;;;;;;12.07;4.65;;;12.20;99.90;;;;;;5012658;28;20057;-73
2021/04/01 07:15:40;;;;;;;11.18;4.82;;;12.20;99.90;;;;;;5010867;28;20037;-73
2021/04/01 07:18:32;;;;;;;8.60;5.05;;;12.20;99.90;;;;;;5010680;28;20032;-73
2021/04/01 07:24:02;;;;;;;9.75;4.68;;;12.30;99.90;;;;;;5012853;28;20463;-74
2021/04/01 07:30:53;;;;;;;13.80;5.18;;;12.50;99.90;;;;;;5012917;28;20033;-73
2021/04/01 07:46:19;;;;;;;9.77;4.32;;;14.40;99.90;;;;;;5011969;28;20048;-73
2021/04/01 07:48:47;;;;;;;8.93;3.83;;;14.70;98.30;;;;;;5011450;28;20025;-74
2021/04/01 07:54:16;;;;;;;9.65;3.80;;;15.40;93.00;;;;;;5011767;28;20053;-73
2021/04/01 07:59:31;;;;;;;10.30;3.83;;;16.20;87.70;;;;;;5011410;28;20034;-73
2021/04/01 08:04:29;;;;;;;8.52;3.88;;;18.00;74.70;;;;;;5011018;28;20479;-74
2021/04/01 08:07:12;;;;;;;9.80;3.75;;;18.60;67.80;;;;;;5009661;28;20026;-74
2021/04/01 08:09:41;;;;;;;5.95;3.58;;;19.50;62.90;;;;;;5009576;28;20088;-73
2021/04/01 08:12:33;;;;;;;6.63;4.07;;;21.20;57.00;;;;;;5009352;28;20052;-74
2021/04/01 08:15:22;;;;;;;7.97;4.13;;;23.20;48.90;;;;;;5009560;28;20022;-74
2021/04/01 08:17:56;;;;;;;7.47;3.50;;;24.80;43.50;;;;;;5009404;28;20029;-74
2021/04/01 08:20:26;;;;;;;7.15;4.03;;;25.90;42.10;;;;;;5009194;28;20439;-75
2021/04/01 08:23:59;;;;;;;6.93;3.35;;;25.90;40.40;;;;;;5009348;28;20037;-74
2021/04/01 08:26:11;;;;;;;10.13;3.35;;;25.10;42.00;;;;;;4997529;28;20038;-74
2021/04/01 08:36:46;;;;;;;9.98;4.05;;;29.30;33.60;;;;;;5010685;28;20026;-75
2021/04/01 08:39:14;;;;;;;7.40;3.67;;;30.10;32.20;;;;;;5009128;28;20057;-75
2021/04/01 08:41:42;;;;;;;7.90;3.78;;;31.20;30.70;;;;;;5008744;28;20037;-75
2021/04/01 08:44:45;;;;;;;9.38;4.00;;;31.80;29.00;;;;;;5008949;28;20458;-75
2021/04/01 08:47:34;;;;;;;10.37;3.97;;;31.90;29.10;;;;;;5009162;28;20479;-75
2021/04/01 08:50:23;;;;;;;9.38;3.85;;;30.60;30.00;;;;;;5009022;28;20260;-75
2021/04/01 08:53:17;;;;;;;10.13;3.97;;;28.90;32.50;;;;;;5009041;28;20065;-75
2021/04/01 08:56:00;;;;;;;9.60;3.88;;;26.80;36.10;;;;;;5008270;28;20026;-76
2021/04/01 08:58:58;;;;;;;8.48;4.03;;;26.00;37.90;;;;;;5008994;28;20079;-76
2021/04/01 09:01:31;;;;;;;7.80;4.38;;;26.40;39.00;;;;;;4989882;28;20448;-75
2021/04/01 09:03:59;;;;;;;8.13;3.75;;;29.20;34.20;;;;;;5008934;28;20150;-76
2021/04/01 09:06:31;;;;;;;10.40;3.78;;;32.90;29.40;;;;;;5008989;28;20025;-75
2021/04/01 09:09:05;;;;;;;8.88;3.72;;;36.20;27.30;;;;;;5008775;28;20125;-76
2021/04/01 09:11:54;;;;;;;8.07;3.88;;;38.70;24.80;;;;;;5008639;28;20050;-73
2021/04/01 09:14:31;;;;;;;9.50;4.35;;;40.80;23.20;;;;;;5008792;28;20061;-74
2021/04/01 09:17:10;;;;;;;6.20;3.97;;;41.90;21.60;;;;;;5008538;28;20018;-74
2021/04/01 09:19:41;;;;;;;9.63;4.53;;;43.50;21.30;;;;;;5008503;28;20034;-74
2021/04/01 09:22:17;;;;;;;10.93;4.80;;;43.80;20.30;;;;;;5008276;28;20084;-74
2021/04/01 09:24:43;;;;;;;12.57;5.00;;;44.10;19.90;;;;;;5008975;28;20498;-74
2021/04/01 09:27:11;;;;;;;12.75;5.10;;;44.70;19.60;;;;;;5008456;28;20117;-73
2021/04/01 09:29:42;;;;;;;11.13;5.60;;;44.10;19.50;;;;;;5008611;28;20470;-74
2021/04/01 09:32:09;;;;;;;12.10;5.43;;;42.20;20.10;;;;;;5008286;28;20030;-73
2021/04/01 09:34:37;;;;;;;15.18;5.53;;;42.90;20.60;;;;;;5008241;28;20034;-74
2021/04/01 09:37:14;;;;;;;12.68;7.18;;;44.30;19.80;;;;;;5008294;28;20082;-76
2021/04/01 09:39:40;;;;;;;13.15;6.88;;;44.50;19.00;;;;;;5009346;28;20403;-75
2021/04/01 09:42:09;;;;;;;13.30;6.70;;;43.80;19.70;;;;;;5008156;28;20018;-75
2021/04/01 09:44:36;;;;;;;16.00;6.25;;;44.20;19.60;;;;;;5008221;28;20137;-75
2021/04/01 09:47:10;;;;;;;14.68;6.47;;;42.80;19.60;;;;;;5008752;28;20084;-75
2021/04/01 09:49:54;;;;;;;11.93;5.78;;;43.70;20.00;;;;;;5008171;28;20447;-74
2021/04/01 09:52:28;;;;;;;10.32;5.03;;;44.00;19.20;;;;;;5008342;28;20037;-74
2021/04/01 09:54:59;;;;;;;12.52;8.15;;;44.30;19.20;;;;;;5008106;28;20025;-75
2021/04/01 09:57:45;;;;;;;12.38;7.53;;;44.40;18.80;;;;;;5008189;28;20123;-75
2021/04/01 10:03:03;;;;;;;10.90;6.47;;;45.50;18.30;;;;;;5009704;28;20549;-75
2021/04/01 10:05:36;;;;;;;11.23;5.68;;;45.00;19.00;;;;;;5008630;28;20405;-75
2021/04/01 10:08:03;;;;;;;10.40;5.88;;;46.50;18.40;;;;;;5011901;28;20029;-75
2021/04/01 10:10:42;;;;;;;9.93;6.55;;;46.10;18.10;;;;;;5011616;28;20113;-75
2021/04/01 10:13:20;;;;;;;9.55;6.07;;;46.20;17.50;;;;;;5011681;28;20036;-75
2021/04/01 10:15:46;;;;;;;11.77;6.07;;;46.20;17.80;;;;;;5011764;28;20053;-75
2021/04/01 10:18:21;;;;;;;12.18;6.88;;;45.10;18.20;;;;;;5011600;28;20021;-75
2021/04/01 10:20:58;;;;;;;17.35;10.32;;;45.20;18.30;;;;;;5011612;28;20030;-75
2021/04/01 10:23:24;;;;;;;14.80;10.13;;;44.30;18.60;;;;;;5011615;28;20030;-75
2021/04/01 10:25:56;;;;;;;16.30;9.85;;;44.50;18.10;;;;;;5011478;28;20052;-75
2021/04/01 10:28:28;;;;;;;16.15;9.10;;;44.50;18.30;;;;;;5011527;28;20033;-75
2021/04/01 10:30:55;;;;;;;14.32;8.68;;;44.50;18.40;;;;;;5011428;28;20033;-75
2021/04/01 10:33:38;;;;;;;13.82;8.45;;;43.90;18.60;;;;;;5011281;28;20131;-75
2021/04/01 10:36:07;;;;;;;13.15;8.48;;;44.30;18.80;;;;;;5011525;28;20030;-75
2021/04/01 10:38:36;;;;;;;12.57;7.90;;;44.10;17.30;;;;;;5011344;28;20032;-75
2021/04/01 10:41:12;;;;;;;12.55;7.97;;;44.10;17.60;;;;;;5011279;28;20018;-75
2021/04/01 10:43:41;;;;;;;10.57;7.20;;;44.10;17.10;;;;;;5011291;28;20054;-75
2021/04/01 10:46:15;;;;;;;11.00;7.15;;;44.00;17.40;;;;;;5011129;28;20117;-74
2021/04/01 10:48:48;;;;;;;14.20;8.02;;;44.30;17.50;;;;;;5011230;28;20037;-75
2021/04/01 10:51:16;;;;;;;10.07;6.57;;;45.40;17.10;;;;;;5011337;28;20041;-75
2021/04/01 10:53:43;;;;;;;15.70;8.00;;;45.80;17.40;;;;;;5012409;28;20120;-75
2021/04/01 10:56:13;;;;;;;14.68;6.63;;;45.60;16.80;;;;;;5012327;28;20105;-75
2021/04/01 10:58:54;;;;;;;11.23;7.18;;;45.20;16.70;;;;;;5011086;28;20073;-75
2021/04/01 11:01:36;;;;;;;13.53;7.30;;;45.10;17.10;;;;;;5010877;28;20602;-75
2021/04/01 11:04:05;;;;;;;14.50;7.20;;;45.40;17.00;;;;;;5010979;28;20029;-74
2021/04/01 11:06:33;;;;;;;12.50;7.28;;;45.10;17.00;;;;;;5011075;28;20403;-74
2021/04/01 11:09:00;;;;;;;11.40;8.00;;;44.20;17.60;;;;;;5010851;28;20043;-75
2021/04/01 11:12:19;;;;;;;16.50;8.57;;;43.70;17.00;;;;;;5011331;28;20030;-75
2021/04/01 11:14:23;;;;;;;13.00;9.02;;;44.00;17.50;;;;;;5004808;28;20052;-75
2021/04/01 11:16:52;;;;;;;10.38;5.97;;;43.40;17.60;;;;;;5010745;28;20025;-75
2021/04/01 11:19:18;;;;;;;13.77;7.07;;;44.90;17.50;;;;;;5010728;28;20030;-75
2021/04/01 11:21:46;;;;;;;10.73;6.88;;;46.20;16.20;;;;;;5026249;23;20129;-75
2021/04/01 11:24:11;;;;;;;9.65;6.45;;;45.90;16.30;;;;;;5010419;28;20029;-75
2021/04/01 11:26:38;;;;;;;11.57;5.97;;;46.70;16.50;;;;;;5010470;28;20076;-75
2021/04/01 11:29:12;;;;;;;10.40;6.55;;;46.30;15.80;;;;;;5010455;28;20080;-74
2021/04/01 11:31:38;;;;;;;12.93;6.68;;;45.70;16.30;;;;;;5010376;28;20053;-75
2021/04/01 11:34:04;;;;;;;7.90;5.32;;;45.70;16.80;;;;;;5010307;28;20072;-74
2021/04/01 11:36:41;;;;;;;10.52;6.10;;;45.90;16.60;;;;;;5010251;28;20017;-75
2021/04/01 11:39:40;;;;;;;13.43;6.07;;;46.00;16.20;;;;;;5010246;28;20395;-74
2021/04/01 11:41:58;;;;;;;11.45;5.57;;;45.30;16.60;;;;;;5008641;28;20038;-74
2021/04/01 11:44:24;;;;;;;11.57;6.43;;;44.70;16.70;;;;;;5010071;28;20129;-74
2021/04/01 11:46:50;;;;;;;11.95;6.38;;;44.90;17.00;;;;;;5009997;28;20491;-75
2021/04/01 11:49:15;;;;;;;12.65;6.35;;;45.00;16.90;;;;;;5011235;28;20037;-74
2021/04/01 11:51:41;;;;;;;10.80;6.53;;;44.40;17.00;;;;;;5011567;28;20030;-74
2021/04/01 11:54:08;;;;;;;9.55;5.78;;;44.60;16.90;;;;;;5009926;28;20033;-74
2021/04/01 11:56:36;;;;;;;11.45;6.10;;;44.50;16.90;;;;;;5011226;28;20491;-74
2021/04/01 11:59:19;;;;;;;9.75;5.88;;;45.00;16.30;;;;;;5009940;28;20119;-75
2021/04/01 12:02:06;;;;;;;11.00;5.55;;;45.20;16.70;;;;;;5011276;28;20030;-75
2021/04/01 12:04:34;;;;;;;13.02;6.55;;;44.20;17.00;;;;;;5011107;28;20347;-74
2021/04/01 12:07:03;;;;;;;14.52;6.88;;;43.80;17.50;;;;;;5009719;28;20030;-75
2021/04/01 12:09:29;;;;;;;9.30;5.97;;;42.90;17.50;;;;;;5009621;28;20108;-74
2021/04/01 12:11:55;;;;;;;10.25;5.30;;;43.40;18.00;;;;;;5010718;28;20180;-75
2021/04/01 12:14:32;;;;;;;7.25;4.28;;;45.50;17.40;;;;;;5010765;28;20033;-76
2021/04/01 12:17:05;;;;;;;10.38;6.35;;;47.20;16.40;;;;;;5010780;28;20029;-76
2021/04/01 12:19:32;;;;;;;9.07;5.60;;;46.80;15.60;;;;;;5010781;28;20101;-76
2021/04/01 12:22:03;;;;;;;10.23;6.03;;;46.80;16.20;;;;;;5009239;28;20113;-76
2021/04/01 12:24:28;;;;;;;9.80;5.50;;;45.10;15.90;;;;;;5009503;28;20517;-75
2021/04/01 12:26:58;;;;;;;9.70;5.60;;;44.50;16.60;;;;;;5010603;28;20107;-74
2021/04/01 12:29:24;;;;;;;14.73;5.28;;;43.40;16.70;;;;;;5008327;28;20034;-74
2021/04/01 12:31:56;;;;;;;11.15;5.57;;;42.40;18.00;;;;;;5010407;28;20026;-74
2021/04/01 12:34:31;;;;;;;;;;;43.60;18.00;;;;;;5010785;28;20130;-74
2021/04/01 12:37:00;;;;;;;10.25;5.82;;;43.90;17.00;;;;;;5010403;28;19905;-74
2021/04/01 12:39:30;;;;;;;10.38;5.70;;;43.90;16.90;;;;;;5010597;28;20033;-74
2021/04/01 12:41:56;;;;;;;13.50;6.50;;;43.60;17.60;;;;;;5009090;28;20029;-74
2021/04/01 12:44:36;;;;;;;9.77;5.82;;;42.60;17.40;;;;;;5009101;28;20026;-74
2021/04/01 12:47:01;;;;;;;10.73;5.40;;;43.00;17.80;;;;;;5009098;28;20033;-74
2021/04/01 12:49:32;;;;;;;12.90;6.35;;;43.00;18.00;;;;;;5010717;28;20386;-74
2021/04/01 12:52:01;;;;;;;11.65;5.63;;;42.80;17.20;;;;;;5010254;28;20026;-74
2021/04/01 12:54:32;;;;;;;13.30;6.63;;;42.10;17.90;;;;;;5010102;28;20052;-73
2021/04/01 12:57:01;;;;;;;9.18;6.10;;;40.60;18.30;;;;;;5010396;28;20022;-73
2021/04/01 12:59:38;;;;;;;13.65;6.63;;;40.20;19.20;;;;;;5008855;28;20088;-74
2021/04/01 13:04:32;;;;;;;12.00;6.10;;;39.30;20.80;;;;;;5010256;28;20025;-73
2021/04/01 13:09:50;;;;;;;12.50;6.50;;;38.70;20.10;;;;;;5010128;28;20048;-74
2021/04/01 13:12:18;;;;;;;10.23;5.97;;;38.60;20.40;;;;;;5008667;28;20022;-73
2021/04/01 13:14:45;;;;;;;12.80;6.97;;;39.00;20.00;;;;;;5009824;28;20022;-74
2021/04/01 13:17:11;;;;;;;11.10;6.95;;;38.60;19.80;;;;;;5008647;28;20483;-73
2021/04/01 13:19:37;;;;;;;10.32;6.20;;;37.30;20.80;;;;;;5009775;28;20030;-73
2021/04/01 13:27:07;;;;;;;12.00;6.65;;;36.00;22.30;;;;;;5009842;28;20495;-74
2021/04/01 13:29:34;;;;;;;9.55;6.05;;;36.00;22.60;;;;;;5009671;28;20479;-74
2021/04/01 13:32:28;;;;;;;10.57;6.47;;;36.80;22.10;;;;;;5009522;28;20033;-74
2021/04/01 13:35:04;;;;;;;9.27;5.80;;;36.70;21.60;;;;;;5008472;28;20034;-73
2021/04/01 13:37:35;;;;;;;11.07;6.25;;;36.60;21.90;;;;;;5010030;28;20030;-74
2021/04/01 13:40:08;;;;;;;6.97;5.05;;;35.80;22.20;;;;;;5009557;28;20357;-73
2021/04/01 13:42:36;;;;;;;11.15;5.20;;;36.10;22.20;;;;;;5013620;28;20392;-76
2021/04/01 13:45:17;;;;;;;12.75;6.35;;;36.60;22.20;;;;;;5013725;28;20022;-74
2021/04/01 13:47:45;;;;;;;15.50;7.20;;;36.80;22.40;;;;;;5013630;28;20455;-73
2021/04/01 13:50:15;;;;;;;20.85;9.48;;;35.50;22.70;;;;;;5012311;28;20141;-73
2021/04/01 13:53:29;;;;;;;10.52;6.00;;;34.30;24.00;;;;;;5012195;28;20022;-74
2021/04/01 13:55:32;;;;;;;10.18;6.20;;;33.40;25.30;;;;;;5005327;28;20487;-72
2021/04/01 13:58:23;;;;;;;14.43;9.02;;;33.90;25.30;;;;;;5013379;28;20022;-71
2021/04/01 14:01:23;;;;;;;8.88;5.82;;;35.00;23.80;;;;;;5012416;28;20523;-75
2021/04/01 14:09:38;;;;;;;8.43;5.35;;;39.20;21.30;;;;;;5013542;28;20033;-75
2021/04/01 14:12:08;;;;;;;7.97;5.25;;;40.00;20.70;;;;;;5013264;28;20076;-75
2021/04/01 14:14:36;;;;;;;8.15;5.38;;;40.50;20.80;;;;;;5013108;28;20026;-75
2021/04/01 14:17:04;;;;;;;8.25;5.13;;;39.60;20.90;;;;;;5011723;28;20026;-75
2021/04/01 14:19:29;;;;;;;7.80;5.03;;;37.60;22.20;;;;;;5012996;28;20033;-74
2021/04/01 14:21:58;;;;;;;8.88;5.93;;;36.30;23.30;;;;;;5011278;28;20037;-74
2021/04/01 14:24:29;;;;;;;11.38;6.13;;;35.10;23.80;;;;;;5012815;28;20026;-74
2021/04/01 14:27:06;;;;;;;9.10;5.85;;;34.20;24.50;;;;;;5012930;28;20105;-74
2021/04/01 14:29:35;;;;;;;14.05;5.57;;;32.80;25.20;;;;;;5013226;28;20442;-74
2021/04/01 14:32:02;;;;;;;9.13;5.45;;;31.90;26.60;;;;;;5012752;28;20026;-74